CheckWX is a tool to help pilots better visualize weather data.  It is not intended as a substitute for an official pre-flight weather briefing.

18:23:20 UTC

KGKT METAR
Gatlinburg-Pigeon Forge Airport
Sevierville, Tennessee, USA
Current

8 mins ago

KGKT 121815Z AUTO 03006KT 10SM SCT023 OVC029 M01/M03 A3025 RMK A01
Observed
Nov-12 @ 18:15 UTC
Wind
  • 030° at 6 KTS
Visibility
10 SM
Flight Rules
MVFR
Cloud Levels
  • Scattered at 2,300' AGL
  • Overcast at 2,900' AGL
Temperature
-1°C / 30°F
Dewpoint
-3°C / 27°F
Humidity
86%
Altimeter
30.25" Hg
Pressure
1024.42 hPa
Previous

28 mins ago

KGKT 121755Z AUTO 01006KT 10SM BKN017 OVC023 M01/M04 A3025 RMK A01 P0001
Observed
Nov-12 @ 17:55 UTC
Wind
  • 010° at 6 KTS
Visibility
10 SM
Flight Rules
MVFR
Cloud Levels
  • Broken at 1,700' AGL
  • Overcast at 2,300' AGL
Temperature
-1°C / 30°F
Dewpoint
-4°C / 25°F
Humidity
80%
Altimeter
30.25" Hg
Pressure
1024.42 hPa
Current Rain
0.01"
Previous

48 mins ago

KGKT 121735Z AUTO 01004KT 10SM OVC016 M01/M03 A3026 RMK A01
Observed
Nov-12 @ 17:35 UTC
Wind
  • 010° at 4 KTS
Visibility
10 SM
Flight Rules
MVFR
Cloud Levels
  • Overcast at 1,600' AGL
Temperature
-1°C / 30°F
Dewpoint
-3°C / 27°F
Humidity
86%
Altimeter
30.26" Hg
Pressure
1024.72 hPa